Aviation Digital Data Service (ADDS)

Output produced by METARs form (1759 UTC 29 August 2016)
found at http://www.aviationweather.gov/adds/metars/
 
METAR text: EPPO 291730Z 28012KT 9999 SCT040 22/13 Q1015
Conditions at: EPPO (POZNAN/LAWICA , PL) observed 1730 UTC 29 August 2016
Temperature: 22.0°C (72°F)
Dewpoint: 13.0°C (55°F) [RH = 57%]
Pressure (altimeter): 29.97 inches Hg (1015.0 mb)
Winds: from the W (280 degrees) at 14 MPH (12 knots; 6.2 m/s)
Visibility: 6 or more miles (10+ km)
Ceiling: at least 12,000 feet AGL
Clouds: scattered clouds at 4000 feet AGL
Weather: no significant weather observed at this time

Forecast for: EPPO (POZNAN/LAWICA , PL)
Text: TAF EPPO 291730Z 2918/3018 27008KT 9999 SCT040
Forecast period: 1800 UTC 29 August 2016 to 1800 UTC 30 August 2016
Forecast type: FROM: standard forecast or significant change
Winds: from the W (270 degrees) at 9 MPH (8 knots; 4.2 m/s)
Visibility: 6 or more miles (10+ km)
Clouds: scattered clouds at 4000 feet AGL
Weather: no significant weather forecast for this period
Text: PROB40
Forecast period: 1800 to 2200 UTC 29 August 2016
Forecast type: TEMPORARY: The following changes expected for less than half the time period
Winds: from the W (270 degrees) at 17 MPH (15 knots; 7.8 m/s)
gusting to 29 MPH (25 knots; 13.0 m/s)
Ceiling: 2000 feet AGL
Clouds: broken clouds at 2000 feet AGL
Weather: no significant weather forecast for this period